Tunbridge Wells, United Kingdom
Current Conditions -  °F | °C
As of 5:20 PM on Friday 31 Oct 2014 (Local Time) from EGKB Reporting Station
Clear Clear  
Wind Chill: 63°   Ceiling: Unl
Heat Index: 63°   Visibility: 6mi
Dew Point: 52°   Wind: 14mph
Humidity: 68%   Direction: 160°SSE
Pressure: 30"   Gusts: NA
Location:  51.14°N, 0.28°E
Report Text: EGKB 311720Z 16012KT CAVOK 17/11 Q1016
Loading
Personal Weather Stations






























Interactive Weather Map
Tropical Storm Tracking
New forecast layout! Learn more

10-Day Weather Forecast

Advertisements
Track Severe Weather on mobile